Time;durP1;ratioP1;P1;durP2;ratioP2;P2;SDS_P1;SDS_P2;PMS_P1;PMS_P2;Temp;Humidity;BMP_temperature;BMP_pressure;BME280_temperature;BME280_humidity;BME280_pressure;Samples;Min_cycle;Max_cycle;Signal;HPM_P1;HPM_P2
2023/10/14 07:51:35;;;;;;;9.00;5.20;;;;;;;;;;4275741;27;20888;-80
2023/10/14 07:56:35;;;;;;;11.57;5.30;;;;;;;;;;4275738;27;20057;-79
2023/10/14 07:58:38;;;;;;;12.20;5.85;;;;;;;;;;4285598;27;20042;-79
2023/10/14 08:00:48;;;;;;;11.43;5.18;;;;;;;;;;4274131;27;20053;-80
2023/10/14 08:02:51;;;;;;;11.73;5.78;;;;;;;;;;4286517;27;20053;-78
2023/10/14 08:04:54;;;;;;;14.75;5.32;;;;;;;;;;4288741;27;20042;-78
2023/10/14 08:06:57;;;;;;;10.77;5.20;;;;;;;;;;4266468;27;20481;-78
2023/10/14 08:09:43;;;;;;;13.85;6.32;;;;;;;;;;4273677;27;20039;-80
2023/10/14 08:11:54;;;;;;;12.02;5.70;;;;;;;;;;4274517;27;20053;-79
2023/10/14 08:13:57;;;;;;;11.00;5.88;;;;;;;;;;4286478;27;20054;-83
2023/10/14 08:15:59;;;;;;;12.65;5.78;;;;;;;;;;4267092;27;20051;-83
2023/10/14 08:18:04;;;;;;;9.45;5.38;;;;;;;;;;4264168;27;20103;-82
2023/10/14 08:20:12;;;;;;;12.63;5.32;;;;;;;;;;4264228;27;20134;-85
2023/10/14 08:22:17;;;;;;;10.43;5.35;;;;;;;;;;4264095;27;20043;-86
2023/10/14 08:24:20;;;;;;;13.15;5.40;;;;;;;;;;4263836;27;20089;-83
2023/10/14 08:26:26;;;;;;;11.98;5.35;;;;;;;;;;4263845;27;20038;-84
2023/10/14 08:28:29;;;;;;;13.20;5.20;;;;;;;;;;4263953;27;20071;-83
2023/10/14 08:30:32;;;;;;;11.50;5.00;;;;;;;;;;4263791;27;20096;-85
2023/10/14 08:32:37;;;;;;;9.52;5.40;;;;;;;;;;4263477;27;20051;-85
2023/10/14 08:34:39;;;;;;;10.63;5.22;;;;;;;;;;4264110;27;20043;-83
2023/10/14 08:36:42;;;;;;;12.10;5.25;;;;;;;;;;4263787;27;20421;-84
2023/10/14 08:38:47;;;;;;;11.63;5.82;;;;;;;;;;4263554;27;20043;-83
2023/10/14 08:40:53;;;;;;;10.75;5.32;;;;;;;;;;4263466;27;20047;-84
2023/10/14 08:42:57;;;;;;;9.52;4.88;;;;;;;;;;4263617;27;20075;-85
2023/10/14 08:44:59;;;;;;;10.15;4.90;;;;;;;;;;4263733;27;20050;-84
2023/10/14 08:47:01;;;;;;;10.90;5.20;;;;;;;;;;4263464;27;20043;-84
2023/10/14 08:49:04;;;;;;;13.70;5.50;;;;;;;;;;4245292;27;20039;-84
2023/10/14 08:51:08;;;;;;;10.82;5.32;;;;;;;;;;4244502;27;20081;-82
2023/10/14 08:53:11;;;;;;;14.02;5.60;;;;;;;;;;4263116;27;20399;-84
2023/10/14 08:55:16;;;;;;;12.10;5.32;;;;;;;;;;4263419;27;20494;-84
2023/10/14 08:57:18;;;;;;;11.13;4.80;;;;;;;;;;4263375;27;20043;-85
2023/10/14 08:59:21;;;;;;;12.43;5.25;;;;;;;;;;4245039;28;20051;-84
2023/10/14 09:01:24;;;;;;;9.98;4.93;;;;;;;;;;4260433;27;20043;-83
2023/10/14 09:03:25;;;;;;;9.98;4.97;;;;;;;;;;4251584;27;20082;-84
2023/10/14 09:05:30;;;;;;;11.20;4.50;;;;;;;;;;4251683;27;20047;-83
2023/10/14 09:07:33;;;;;;;10.15;3.85;;;;;;;;;;4251642;27;20050;-82
2023/10/14 09:09:35;;;;;;;10.65;4.15;;;;;;;;;;4251541;27;20043;-84
2023/10/14 09:11:39;;;;;;;10.68;4.35;;;;;;;;;;4251446;27;20054;-84
2023/10/14 09:13:41;;;;;;;8.98;3.70;;;;;;;;;;4254543;27;20039;-84
2023/10/14 09:15:44;;;;;;;8.55;3.58;;;;;;;;;;4256185;27;20061;-85
2023/10/14 09:17:45;;;;;;;8.23;3.50;;;;;;;;;;4233443;28;20104;-85
2023/10/14 09:19:49;;;;;;;8.23;3.47;;;;;;;;;;4251423;27;20513;-85
2023/10/14 09:21:57;;;;;;;6.13;3.20;;;;;;;;;;4251757;27;20039;-85
2023/10/14 09:24:07;;;;;;;7.72;3.50;;;;;;;;;;4251457;27;20054;-83
2023/10/14 09:26:10;;;;;;;8.98;3.67;;;;;;;;;;4251325;27;20051;-86
2023/10/14 09:28:16;;;;;;;7.78;3.10;;;;;;;;;;4251403;27;20051;-83
2023/10/14 09:30:19;;;;;;;7.50;3.15;;;;;;;;;;4251575;27;20047;-84
2023/10/14 09:32:22;;;;;;;5.88;3.10;;;;;;;;;;4252090;27;20613;-85
2023/10/14 09:34:27;;;;;;;7.80;3.22;;;;;;;;;;4251678;27;20047;-84
2023/10/14 09:36:28;;;;;;;8.90;3.33;;;;;;;;;;4252015;27;20075;-85
2023/10/14 09:38:32;;;;;;;9.50;3.60;;;;;;;;;;4251574;27;20445;-84
2023/10/14 09:40:34;;;;;;;9.68;3.20;;;;;;;;;;4251143;27;20082;-85
2023/10/14 09:42:37;;;;;;;8.02;3.28;;;;;;;;;;4251052;27;20054;-84
2023/10/14 09:44:43;;;;;;;8.82;2.90;;;;;;;;;;4251139;27;20099;-84
2023/10/14 09:46:46;;;;;;;7.82;3.10;;;;;;;;;;4251036;27;20074;-84
2023/10/14 09:48:50;;;;;;;7.32;2.90;;;;;;;;;;4251284;27;20039;-86
2023/10/14 09:50:54;;;;;;;8.05;3.22;;;;;;;;;;4250839;27;20077;-84
2023/10/14 09:53:00;;;;;;;6.55;2.88;;;;;;;;;;4250875;27;20047;-84
2023/10/14 09:55:04;;;;;;;6.15;2.70;;;;;;;;;;4250911;27;20054;-82
2023/10/14 09:57:10;;;;;;;8.20;3.10;;;;;;;;;;4250773;27;20043;-82
2023/10/14 09:59:11;;;;;;;;;;;;;;;;;;4251032;27;20480;-83
2023/10/14 10:01:16;;;;;;;8.65;3.00;;;;;;;;;;4250712;27;19919;-83
2023/10/14 10:03:19;;;;;;;3.97;1.90;;;;;;;;;;4251224;27;20043;-82
2023/10/14 10:05:26;;;;;;;3.33;1.02;;;;;;;;;;4250542;27;20051;-81
2023/10/14 10:07:41;;;;;;;2.72;0.80;;;;;;;;;;4250449;27;20539;-82
2023/10/14 10:10:10;;;;;;;3.78;1.00;;;;;;;;;;4250423;27;20047;-83
2023/10/14 10:12:13;;;;;;;3.70;0.90;;;;;;;;;;4252085;27;20422;-82
2023/10/14 10:14:20;;;;;;;1.45;0.70;;;;;;;;;;4233146;28;20051;-84
2023/10/14 10:16:24;;;;;;;3.25;0.90;;;;;;;;;;4252788;27;20047;-86
2023/10/14 10:18:50;;;;;;;2.13;0.88;;;;;;;;;;4254699;27;20043;-81
2023/10/14 10:20:56;;;;;;;2.47;0.75;;;;;;;;;;4251353;27;20126;-82
2023/10/14 10:23:01;;;;;;;2.80;0.90;;;;;;;;;;4253306;27;20047;-84
2023/10/14 10:25:03;;;;;;;2.58;0.93;;;;;;;;;;4251112;27;20043;-85
2023/10/14 10:27:10;;;;;;;4.18;1.00;;;;;;;;;;4251010;27;20438;-82
2023/10/14 10:29:22;;;;;;;5.07;1.08;;;;;;;;;;4258483;27;20051;-84
2023/10/14 10:31:26;;;;;;;4.38;1.27;;;;;;;;;;4234944;28;20152;-84
2023/10/14 10:34:02;;;;;;;6.97;1.30;;;;;;;;;;4251607;27;20047;-85
2023/10/14 10:36:04;;;;;;;4.45;1.40;;;;;;;;;;4250873;27;20096;-88
2023/10/14 10:38:10;;;;;;;3.80;1.50;;;;;;;;;;4251272;27;20039;-87
2023/10/14 10:40:12;;;;;;;6.15;1.65;;;;;;;;;;4251979;27;20051;-85
2023/10/14 10:42:15;;;;;;;4.55;1.50;;;;;;;;;;4252109;27;20440;-85
2023/10/14 10:44:18;;;;;;;4.28;1.35;;;;;;;;;;4257653;27;20054;-88
2023/10/14 10:46:35;;;;;;;4.32;1.45;;;;;;;;;;4258496;27;20047;-88
2023/10/14 10:48:40;;;;;;;4.03;1.50;;;;;;;;;;4264049;27;20051;-87
2023/10/14 10:50:43;;;;;;;;;;;;;;;;;;4242731;28;20577;-87
2023/10/14 10:53:08;;;;;;;3.40;1.38;;;;;;;;;;4234011;28;20421;-86
2023/10/14 10:55:10;;;;;;;3.67;1.00;;;;;;;;;;4230233;28;20047;-89
2023/10/14 10:57:13;;;;;;;3.28;1.13;;;;;;;;;;4232624;28;20048;-88
2023/10/14 10:59:15;;;;;;;4.40;1.08;;;;;;;;;;4232737;28;20048;-88
2023/10/14 11:01:19;;;;;;;3.05;1.10;;;;;;;;;;4233141;28;20051;-87
2023/10/14 11:03:23;;;;;;;4.13;1.20;;;;;;;;;;4233517;28;20385;-85
2023/10/14 11:05:26;;;;;;;5.05;1.10;;;;;;;;;;4234042;28;20079;-88
2023/10/14 11:07:28;;;;;;;3.30;1.20;;;;;;;;;;4233363;28;20386;-88
2023/10/14 11:09:31;;;;;;;2.50;1.13;;;;;;;;;;4233696;28;20125;-86
2023/10/14 11:11:36;;;;;;;5.03;1.58;;;;;;;;;;4233324;28;20081;-87
2023/10/14 11:13:37;;;;;;;2.83;1.10;;;;;;;;;;4232407;28;20073;-88
2023/10/14 11:15:40;;;;;;;2.92;1.13;;;;;;;;;;4233232;28;20237;-88
2023/10/14 11:17:41;;;;;;;2.97;1.10;;;;;;;;;;4233143;28;20059;-85
2023/10/14 11:19:45;;;;;;;3.65;1.15;;;;;;;;;;4233113;28;20071;-85
2023/10/14 11:21:49;;;;;;;3.22;1.13;;;;;;;;;;4232823;28;20052;-87
2023/10/14 11:23:53;;;;;;;3.22;1.30;;;;;;;;;;4233294;28;20089;-87
2023/10/14 11:25:55;;;;;;;2.90;1.10;;;;;;;;;;4231674;28;20048;-87
2023/10/14 11:27:58;;;;;;;3.42;1.23;;;;;;;;;;4232869;28;20094;-85
2023/10/14 11:29:59;;;;;;;5.53;1.80;;;;;;;;;;4232808;28;20047;-88
2023/10/14 11:32:02;;;;;;;4.28;1.20;;;;;;;;;;4232991;28;20054;-87
2023/10/14 11:34:04;;;;;;;3.38;1.10;;;;;;;;;;4232990;28;20052;-85
2023/10/14 11:36:48;;;;;;;2.33;0.95;;;;;;;;;;4233080;28;20057;-86
2023/10/14 11:38:50;;;;;;;4.40;1.15;;;;;;;;;;4256457;27;20039;-79
2023/10/14 11:40:53;;;;;;;3.05;1.15;;;;;;;;;;4249133;27;20046;-83
2023/10/14 11:42:55;;;;;;;4.22;1.13;;;;;;;;;;4249540;27;20043;-82
2023/10/14 11:44:58;;;;;;;3.08;1.05;;;;;;;;;;4249038;27;20099;-80
2023/10/14 11:47:06;;;;;;;3.90;1.30;;;;;;;;;;4262002;27;20046;-82
2023/10/14 11:49:09;;;;;;;4.07;1.35;;;;;;;;;;4248658;28;20043;-78
2023/10/14 11:51:12;;;;;;;2.63;1.23;;;;;;;;;;4260074;27;20135;-82
2023/10/14 11:53:15;;;;;;;4.85;1.50;;;;;;;;;;4265962;27;20047;-86
2023/10/14 11:55:19;;;;;;;3.28;1.20;;;;;;;;;;4266219;27;20043;-81
2023/10/14 11:57:21;;;;;;;3.03;1.15;;;;;;;;;;4264819;27;20042;-81
2023/10/14 11:59:25;;;;;;;3.47;1.00;;;;;;;;;;4265856;27;20050;-82
2023/10/14 12:01:32;;;;;;;4.55;1.30;;;;;;;;;;4266164;27;20042;-80
2023/10/14 12:03:34;;;;;;;2.08;0.80;;;;;;;;;;4265937;27;20403;-80
2023/10/14 12:05:39;;;;;;;2.80;1.05;;;;;;;;;;4266530;27;20046;-79
2023/10/14 12:07:42;;;;;;;4.67;2.53;;;;;;;;;;4261888;27;20475;-77
2023/10/14 12:09:47;;;;;;;19.08;12.52;;;;;;;;;;4272860;27;20311;-78
2023/10/14 12:11:50;;;;;;;8.48;4.88;;;;;;;;;;4246665;28;20450;-79
2023/10/14 12:13:52;;;;;;;4.43;1.85;;;;;;;;;;4261156;27;20102;-78
2023/10/14 12:15:53;;;;;;;2.42;1.00;;;;;;;;;;4280842;27;20099;-79
2023/10/14 12:17:56;;;;;;;2.20;0.80;;;;;;;;;;4272122;27;20073;-78
2023/10/14 12:19:57;;;;;;;2.92;1.10;;;;;;;;;;4279945;27;20046;-78
2023/10/14 12:21:59;;;;;;;3.17;1.20;;;;;;;;;;4276366;27;20042;-77
2023/10/14 12:24:04;;;;;;;4.03;1.20;;;;;;;;;;4263853;27;20042;-78
2023/10/14 12:26:07;;;;;;;1.58;0.68;;;;;;;;;;4261943;27;20069;-78
2023/10/14 12:28:10;;;;;;;2.20;0.90;;;;;;;;;;4274290;27;20068;-77
2023/10/14 12:30:28;;;;;;;2.58;0.98;;;;;;;;;;4276751;27;20149;-77
2023/10/14 12:32:32;;;;;;;3.80;1.20;;;;;;;;;;4263977;27;20051;-77
2023/10/14 12:34:33;;;;;;;2.92;1.00;;;;;;;;;;4271074;27;20046;-77
2023/10/14 12:36:40;;;;;;;2.22;0.95;;;;;;;;;;4272615;27;20043;-77
2023/10/14 12:38:43;;;;;;;3.80;1.08;;;;;;;;;;4261833;27;20047;-77
2023/10/14 12:40:48;;;;;;;2.00;0.80;;;;;;;;;;4265929;27;20050;-79
2023/10/14 12:42:56;;;;;;;3.10;0.85;;;;;;;;;;4266477;27;20055;-78
2023/10/14 12:44:57;;;;;;;1.63;0.70;;;;;;;;;;4267502;27;20047;-77
2023/10/14 12:47:05;;;;;;;1.83;0.70;;;;;;;;;;4266740;27;20393;-76
2023/10/14 12:49:10;;;;;;;3.10;0.90;;;;;;;;;;4266817;27;20440;-79
2023/10/14 12:51:17;;;;;;;1.95;0.77;;;;;;;;;;4266909;27;20058;-76
2023/10/14 12:53:19;;;;;;;2.55;0.70;;;;;;;;;;4266893;27;20043;-76
2023/10/14 12:55:22;;;;;;;2.40;0.80;;;;;;;;;;4266743;27;20051;-78
2023/10/14 12:57:25;;;;;;;2.47;0.90;;;;;;;;;;4265715;27;20074;-77
2023/10/14 12:59:28;;;;;;;2.83;0.90;;;;;;;;;;4266717;27;20655;-78
2023/10/14 13:01:33;;;;;;;3.38;0.95;;;;;;;;;;4265919;27;20051;-76
2023/10/14 13:03:35;;;;;;;2.95;0.82;;;;;;;;;;4266153;27;20043;-76
2023/10/14 13:05:39;;;;;;;4.15;1.10;;;;;;;;;;4266893;27;20050;-78
2023/10/14 13:07:41;;;;;;;2.50;0.90;;;;;;;;;;4266819;27;20494;-77
2023/10/14 13:09:43;;;;;;;2.63;1.00;;;;;;;;;;4271693;27;20042;-77
2023/10/14 13:11:45;;;;;;;3.53;1.20;;;;;;;;;;4281452;27;20038;-76
2023/10/14 13:13:50;;;;;;;2.90;1.48;;;;;;;;;;4266622;27;20387;-78
2023/10/14 13:15:54;;;;;;;3.40;0.93;;;;;;;;;;4264918;27;20047;-77
2023/10/14 13:17:58;;;;;;;3.72;0.80;;;;;;;;;;4266487;27;20491;-76
2023/10/14 13:20:00;;;;;;;3.28;0.95;;;;;;;;;;4265390;27;20054;-78
2023/10/14 13:22:08;;;;;;;4.70;2.00;;;;;;;;;;4265369;27;20504;-78
2023/10/14 13:24:11;;;;;;;3.20;1.25;;;;;;;;;;4266385;27;20046;-78
2023/10/14 13:26:15;;;;;;;2.58;0.90;;;;;;;;;;4264596;27;20043;-78
2023/10/14 13:28:21;;;;;;;2.85;0.60;;;;;;;;;;4265885;27;20456;-79
2023/10/14 13:30:23;;;;;;;;;;;;;;;;;;4247225;27;20499;-78
2023/10/14 13:32:27;;;;;;;1.33;0.50;;;;;;;;;;4266200;27;19927;-76
2023/10/14 13:34:32;;;;;;;2.42;0.40;;;;;;;;;;4246907;27;20077;-78
2023/10/14 13:36:34;;;;;;;2.00;0.50;;;;;;;;;;4247507;27;20054;-77
2023/10/14 13:38:39;;;;;;;1.20;0.47;;;;;;;;;;4268047;27;20089;-81
2023/10/14 13:40:42;;;;;;;1.92;0.52;;;;;;;;;;4249105;27;20047;-78
2023/10/14 13:42:43;;;;;;;2.10;0.60;;;;;;;;;;4260979;27;20058;-78
2023/10/14 13:44:45;;;;;;;2.38;0.60;;;;;;;;;;4265875;27;20453;-78
2023/10/14 13:46:48;;;;;;;1.70;0.50;;;;;;;;;;4247160;27;20051;-78
2023/10/14 13:48:56;;;;;;;1.88;0.55;;;;;;;;;;4264078;27;20050;-77
2023/10/14 13:50:58;;;;;;;2.30;0.60;;;;;;;;;;4258434;27;20070;-78
2023/10/14 13:53:00;;;;;;;2.33;0.60;;;;;;;;;;4252983;27;20051;-76
2023/10/14 13:55:04;;;;;;;2.05;0.60;;;;;;;;;;4265063;27;20047;-79
2023/10/14 13:57:06;;;;;;;1.67;0.57;;;;;;;;;;4264865;27;20050;-79
2023/10/14 13:59:09;;;;;;;2.10;0.70;;;;;;;;;;4265558;27;20536;-79
2023/10/14 14:01:11;;;;;;;1.80;0.60;;;;;;;;;;4266066;27;20046;-78
2023/10/14 14:03:14;;;;;;;2.50;0.70;;;;;;;;;;4264803;27;20053;-80
2023/10/14 14:05:18;;;;;;;1.92;0.60;;;;;;;;;;4265354;27;20757;-77
2023/10/14 14:07:21;;;;;;;1.60;0.60;;;;;;;;;;4263558;27;20070;-78
2023/10/14 14:09:23;;;;;;;3.72;0.90;;;;;;;;;;4264902;27;20046;-77
2023/10/14 14:11:29;;;;;;;2.78;0.70;;;;;;;;;;4265484;27;20058;-80
2023/10/14 14:13:32;;;;;;;3.17;1.00;;;;;;;;;;4264175;27;20046;-80
2023/10/14 14:15:36;;;;;;;2.15;0.63;;;;;;;;;;4282306;27;20051;-78
2023/10/14 14:17:38;;;;;;;2.28;0.60;;;;;;;;;;4281461;27;20041;-89
2023/10/14 14:19:40;;;;;;;1.90;0.68;;;;;;;;;;4286377;27;20026;-86
2023/10/14 14:21:44;;;;;;;1.98;0.60;;;;;;;;;;4267103;27;20038;-85
2023/10/14 14:23:48;;;;;;;1.67;0.60;;;;;;;;;;4268898;27;20407;-84
2023/10/14 14:25:49;;;;;;;2.78;0.90;;;;;;;;;;4250104;27;20051;-86
2023/10/14 14:27:53;;;;;;;3.10;0.95;;;;;;;;;;4260247;27;20038;-84
2023/10/14 14:29:55;;;;;;;2.50;0.63;;;;;;;;;;4266995;27;20130;-85
2023/10/14 14:31:58;;;;;;;1.58;0.60;;;;;;;;;;4259794;27;20091;-83
2023/10/14 14:34:00;;;;;;;3.42;0.70;;;;;;;;;;4266997;27;20053;-87
2023/10/14 14:36:03;;;;;;;2.35;0.85;;;;;;;;;;4267852;27;20418;-86
2023/10/14 14:38:08;;;;;;;2.58;0.90;;;;;;;;;;4267666;27;20043;-85
2023/10/14 14:40:16;;;;;;;2.38;0.93;;;;;;;;;;4266657;27;20034;-85
2023/10/14 14:42:21;;;;;;;2.65;0.90;;;;;;;;;;4263947;27;20166;-83
2023/10/14 14:44:23;;;;;;;2.97;0.90;;;;;;;;;;4250596;27;20047;-85
2023/10/14 14:46:25;;;;;;;2.88;0.95;;;;;;;;;;4250226;27;20136;-88
2023/10/14 14:48:27;;;;;;;2.60;1.00;;;;;;;;;;4267443;27;20424;-86
2023/10/14 14:50:34;;;;;;;2.35;0.80;;;;;;;;;;4281199;27;20050;-85
2023/10/14 14:52:37;;;;;;;2.88;0.90;;;;;;;;;;4282268;27;20080;-86
2023/10/14 14:54:41;;;;;;;4.32;1.02;;;;;;;;;;4280038;27;20049;-86
2023/10/14 14:56:44;;;;;;;3.20;1.10;;;;;;;;;;4256850;27;20047;-85
2023/10/14 14:58:48;;;;;;;3.25;1.30;;;;;;;;;;4267982;27;20663;-88
2023/10/14 15:00:51;;;;;;;3.53;1.13;;;;;;;;;;4258251;27;20043;-78
2023/10/14 15:02:55;;;;;;;3.10;1.17;;;;;;;;;;4266146;27;20039;-78
2023/10/14 15:04:57;;;;;;;2.65;1.02;;;;;;;;;;4266081;27;20046;-78
2023/10/14 15:07:00;;;;;;;3.05;0.90;;;;;;;;;;4265438;27;20062;-77
2023/10/14 15:09:03;;;;;;;4.97;1.08;;;;;;;;;;4263818;27;20126;-80
